createdAt,value
2017-05-24T00:00:12.006Z,1017.17
2017-05-24T00:00:52.557Z,1017.16
2017-05-24T00:01:33.069Z,1017.22
2017-05-24T00:02:13.601Z,1017.2
2017-05-24T00:02:54.134Z,1017.19
2017-05-24T00:03:34.667Z,1017.17
2017-05-24T00:04:15.213Z,1017.19
2017-05-24T00:04:55.752Z,1017.22
2017-05-24T00:05:36.290Z,1017.26
2017-05-24T00:06:16.880Z,1017.25
2017-05-24T00:06:57.413Z,1017.28
2017-05-24T00:07:37.950Z,1017.22
2017-05-24T00:08:18.489Z,1017.22
2017-05-24T00:08:59.021Z,1017.2
2017-05-24T00:09:39.557Z,1017.2
2017-05-24T00:10:20.100Z,1017.2
2017-05-24T00:11:00.638Z,1017.21
2017-05-24T00:11:41.179Z,1017.17
2017-05-24T00:12:21.717Z,1017.19
2017-05-24T00:13:02.260Z,1017.22
2017-05-24T00:13:42.801Z,1017.22
2017-05-24T00:14:23.348Z,1017.21
2017-05-24T00:15:03.891Z,1017.22
2017-05-24T00:15:44.423Z,1017.21
2017-05-24T00:16:24.958Z,1017.24
2017-05-24T00:17:05.492Z,1017.21
2017-05-24T00:17:46.034Z,1017.19
2017-05-24T00:18:26.575Z,1017.18
2017-05-24T00:19:07.109Z,1017.2
2017-05-24T00:19:47.649Z,1017.16
2017-05-24T00:20:28.208Z,1017.14
2017-05-24T00:21:08.719Z,1017.15
2017-05-24T00:21:49.263Z,1017.14
2017-05-24T00:22:29.802Z,1017.17
2017-05-24T00:23:10.337Z,1017.13
2017-05-24T00:23:50.877Z,1017.13
2017-05-24T00:24:31.393Z,1017.08
2017-05-24T00:25:11.922Z,1017.11
2017-05-24T00:25:52.478Z,1017.08
2017-05-24T00:26:32.988Z,1017.09
2017-05-24T00:27:13.530Z,1017.1
2017-05-24T00:27:54.069Z,1017.08
2017-05-24T00:28:34.608Z,1017.07
2017-05-24T00:29:15.148Z,1017.09
2017-05-24T00:29:55.669Z,1017.08
2017-05-24T00:30:36.222Z,1017.05
2017-05-24T00:31:16.725Z,1017.05
2017-05-24T00:31:57.251Z,1017.08
2017-05-24T00:32:37.776Z,1017.06
2017-05-24T00:33:18.337Z,1017.09
2017-05-24T00:33:58.855Z,1017.06
2017-05-24T00:34:39.388Z,1017.07
2017-05-24T00:35:19.935Z,1017.07
2017-05-24T00:36:00.472Z,1017.06
2017-05-24T00:36:41.014Z,1017.07
2017-05-24T00:37:21.557Z,1017.05
2017-05-24T00:38:02.100Z,1017.05
2017-05-24T00:38:42.631Z,1017.04
2017-05-24T00:39:23.169Z,1017.04
2017-05-24T00:40:03.708Z,1017.02
2017-05-24T00:40:44.253Z,1017.06
2017-05-24T00:41:24.789Z,1017.04
2017-05-24T00:42:05.338Z,1017.05
2017-05-24T00:42:45.879Z,1017.03
2017-05-24T00:43:26.421Z,1017.05
2017-05-24T00:44:06.952Z,1017.04
2017-05-24T00:44:47.485Z,1017.04
2017-05-24T00:45:28.017Z,1017.03
2017-05-24T00:46:08.557Z,1017.07
2017-05-24T00:46:49.100Z,1017.09
2017-05-24T00:47:29.648Z,1017.07
2017-05-24T00:48:10.190Z,1017.07
2017-05-24T00:48:50.722Z,1017.08
2017-05-24T00:49:31.252Z,1017.06
2017-05-24T00:50:11.790Z,1017.02
2017-05-24T00:50:52.343Z,1017.05
2017-05-24T00:51:32.858Z,1017.06
2017-05-24T00:52:13.390Z,1017.05
2017-05-24T00:52:53.922Z,1017.08
2017-05-24T00:53:34.446Z,1017.1
2017-05-24T00:54:14.991Z,1017.1
2017-05-24T00:54:55.537Z,1017.15
2017-05-24T00:55:36.054Z,1017.14
2017-05-24T00:56:16.591Z,1017.18
2017-05-24T00:56:57.130Z,1017.18
2017-05-24T00:57:37.636Z,1017.18
2017-05-24T00:58:18.172Z,1017.18
2017-05-24T00:58:58.711Z,1017.21
2017-05-24T00:59:39.254Z,1017.2
2017-05-24T01:00:19.796Z,1017.24
2017-05-24T01:01:00.333Z,1017.26
2017-05-24T01:01:40.877Z,1017.24
2017-05-24T01:02:21.416Z,1017.22
2017-05-24T01:03:01.948Z,1017.23
2017-05-24T01:03:42.490Z,1017.16
2017-05-24T01:04:23.032Z,1017.17
2017-05-24T01:05:03.560Z,1017.14
2017-05-24T01:05:44.097Z,1017.11
2017-05-24T01:06:24.638Z,1017.09
2017-05-24T01:07:05.171Z,1017.08
2017-05-24T01:07:45.699Z,1017.07
2017-05-24T01:08:26.246Z,1017.1
2017-05-24T01:09:06.768Z,1017.11
2017-05-24T01:09:47.302Z,1017.11
2017-05-24T01:10:27.843Z,1017.11
2017-05-24T01:11:08.382Z,1017.09
2017-05-24T01:11:48.944Z,1017.07
2017-05-24T01:12:29.484Z,1017.11
2017-05-24T01:13:10.009Z,1017.08
2017-05-24T01:13:50.538Z,1017.07
2017-05-24T01:14:31.095Z,1017.09
2017-05-24T01:15:11.621Z,1017.04
2017-05-24T01:15:52.168Z,1017.05
2017-05-24T01:16:32.708Z,1017.09
2017-05-24T01:17:13.247Z,1017.07
2017-05-24T01:17:53.791Z,1017.11
2017-05-24T01:18:34.348Z,1017.08
2017-05-24T01:19:14.876Z,1017.11
2017-05-24T01:19:55.444Z,1017.09
2017-05-24T01:20:35.993Z,1017.1
2017-05-24T01:21:16.528Z,1017.12
2017-05-24T01:21:57.063Z,1017.13
2017-05-24T01:22:37.611Z,1017.13
2017-05-24T01:23:18.151Z,1017.16
2017-05-24T01:23:58.695Z,1017.12
2017-05-24T01:24:39.230Z,1017.1
2017-05-24T01:25:19.762Z,1017.11
2017-05-24T01:26:00.357Z,1017.06
2017-05-24T01:26:40.893Z,1017.1
2017-05-24T01:27:21.431Z,1017.11
2017-05-24T01:28:01.971Z,1017.11
2017-05-24T01:28:42.512Z,1017.13
2017-05-24T01:29:23.051Z,1017.09
2017-05-24T01:30:03.580Z,1017.08
2017-05-24T01:30:44.126Z,1017.1
2017-05-24T01:31:24.669Z,1017.09
2017-05-24T01:32:05.207Z,1017.03
2017-05-24T01:32:45.740Z,1017
2017-05-24T01:33:26.274Z,1017.02
2017-05-24T01:34:06.790Z,1017
2017-05-24T01:34:47.311Z,1017.01
2017-05-24T01:35:27.850Z,1017.02
2017-05-24T01:36:08.387Z,1017.03
2017-05-24T01:36:48.927Z,1017
2017-05-24T01:37:29.467Z,1017.03
2017-05-24T01:38:10.001Z,1017.02
2017-05-24T01:38:50.532Z,1017.02
2017-05-24T01:39:31.066Z,1016.98
2017-05-24T01:40:11.587Z,1016.99
2017-05-24T01:40:52.126Z,1016.97
2017-05-24T01:41:32.669Z,1016.99
2017-05-24T01:42:13.207Z,1017.02
2017-05-24T01:42:53.740Z,1017.04
2017-05-24T01:43:34.286Z,1017.04
2017-05-24T01:44:14.820Z,1017.01
2017-05-24T01:44:55.350Z,1017.01
2017-05-24T01:45:35.896Z,1017.04
2017-05-24T01:46:16.437Z,1017.03
2017-05-24T01:46:56.977Z,1017
2017-05-24T01:47:37.513Z,1017.02
2017-05-24T01:48:18.041Z,1016.96
2017-05-24T01:48:58.586Z,1017
2017-05-24T01:49:39.134Z,1017.01
2017-05-24T01:50:19.652Z,1017.03
2017-05-24T01:51:00.189Z,1017.04
2017-05-24T01:51:40.736Z,1017.09
2017-05-24T01:52:21.281Z,1017.14
2017-05-24T01:53:01.819Z,1017.09
2017-05-24T01:53:42.382Z,1017.1
2017-05-24T01:54:22.933Z,1017.09
2017-05-24T01:55:03.467Z,1017.1
2017-05-24T01:55:44.001Z,1017.11
2017-05-24T01:56:24.528Z,1017.07
2017-05-24T01:57:05.065Z,1017.06
2017-05-24T01:57:45.606Z,1017.07
2017-05-24T01:58:26.147Z,1017.03
2017-05-24T01:59:06.674Z,1017.03
2017-05-24T01:59:47.202Z,1017.06
2017-05-24T02:00:27.735Z,1017.04
2017-05-24T02:01:08.282Z,1017.04
2017-05-24T02:01:48.798Z,1017.05
2017-05-24T02:02:29.341Z,1017.01
2017-05-24T02:03:09.870Z,1017.05
2017-05-24T02:03:50.404Z,1017.03
2017-05-24T02:04:30.948Z,1017.05
2017-05-24T02:05:11.483Z,1017.02
2017-05-24T02:05:52.022Z,1017.03
2017-05-24T02:06:32.565Z,1017.02
2017-05-24T02:07:13.102Z,1017.06
2017-05-24T02:07:53.624Z,1017.05
2017-05-24T02:08:34.152Z,1017.04
2017-05-24T02:09:14.691Z,1017.05
2017-05-24T02:09:55.236Z,1017.05
2017-05-24T02:10:35.772Z,1017.04
2017-05-24T02:11:16.312Z,1017.07
2017-05-24T02:11:56.855Z,1017.03
2017-05-24T02:12:37.399Z,1017.02
2017-05-24T02:13:17.937Z,1017.02
2017-05-24T02:13:58.467Z,1017.02
2017-05-24T02:14:38.995Z,1017.02
2017-05-24T02:15:19.530Z,1017.02
2017-05-24T02:16:00.073Z,1017.02
2017-05-24T02:16:40.616Z,1016.99
2017-05-24T02:17:21.165Z,1016.98
2017-05-24T02:18:01.703Z,1016.97
2017-05-24T02:18:42.235Z,1016.94
2017-05-24T02:19:22.765Z,1016.98
2017-05-24T02:20:03.314Z,1016.96
2017-05-24T02:20:43.848Z,1016.95
2017-05-24T02:21:24.390Z,1016.92
2017-05-24T02:22:04.916Z,1016.93
2017-05-24T02:22:45.451Z,1016.94
2017-05-24T02:23:25.992Z,1016.94
2017-05-24T02:24:06.508Z,1016.95
2017-05-24T02:24:47.059Z,1016.92
2017-05-24T02:25:27.586Z,1016.91
2017-05-24T02:26:08.123Z,1016.95
2017-05-24T02:26:48.651Z,1016.95
2017-05-24T02:27:29.197Z,1016.94
2017-05-24T02:28:09.721Z,1016.94
2017-05-24T02:28:50.251Z,1016.99
2017-05-24T02:29:30.783Z,1017.01
2017-05-24T02:30:11.334Z,1017
2017-05-24T02:30:51.873Z,1017.01
2017-05-24T02:31:32.412Z,1017.02
2017-05-24T02:32:12.931Z,1017.06
2017-05-24T02:32:53.457Z,1017.02
2017-05-24T02:33:33.991Z,1016.98
2017-05-24T02:34:14.515Z,1017
2017-05-24T02:34:55.058Z,1017
2017-05-24T02:35:35.605Z,1017.01
2017-05-24T02:36:16.144Z,1016.93
2017-05-24T02:36:56.682Z,1016.94
2017-05-24T02:37:37.225Z,1016.94
2017-05-24T02:38:17.762Z,1016.94
2017-05-24T02:38:58.302Z,1016.96
2017-05-24T02:39:38.842Z,1016.98
2017-05-24T02:40:19.386Z,1016.99
2017-05-24T02:40:59.918Z,1016.98
2017-05-24T02:41:40.462Z,1016.98
2017-05-24T02:42:20.983Z,1017.03
2017-05-24T02:43:01.507Z,1017.03
2017-05-24T02:43:42.046Z,1017
2017-05-24T02:44:22.581Z,1017.04
2017-05-24T02:45:03.123Z,1017.02
2017-05-24T02:45:43.643Z,1016.98
2017-05-24T02:46:24.182Z,1016.99
2017-05-24T02:47:04.713Z,1017.01
2017-05-24T02:47:45.250Z,1016.95
2017-05-24T02:48:25.787Z,1016.97
2017-05-24T02:49:06.333Z,1016.99
2017-05-24T02:49:46.867Z,1017
2017-05-24T02:50:27.406Z,1016.99
2017-05-24T02:51:07.923Z,1016.98
2017-05-24T02:51:48.458Z,1016.97
2017-05-24T02:52:29.004Z,1017.03
2017-05-24T02:53:09.539Z,1017.02
2017-05-24T02:53:50.079Z,1017.05
2017-05-24T02:54:30.618Z,1017.06
2017-05-24T02:55:11.185Z,1017.08
2017-05-24T02:55:51.729Z,1017.1
2017-05-24T02:56:32.272Z,1017.12
2017-05-24T02:57:12.798Z,1017.09
2017-05-24T02:57:53.330Z,1017.13
2017-05-24T02:58:33.859Z,1017.2
2017-05-24T02:59:14.399Z,1017.19
2017-05-24T02:59:54.933Z,1017.21
2017-05-24T03:00:35.476Z,1017.19
2017-05-24T03:01:16.000Z,1017.22
2017-05-24T03:01:56.532Z,1017.19
2017-05-24T03:02:37.071Z,1017.21
2017-05-24T03:03:17.612Z,1017.21
2017-05-24T03:03:58.153Z,1017.19
2017-05-24T03:04:38.693Z,1017.23
2017-05-24T03:05:19.231Z,1017.21
2017-05-24T03:05:59.761Z,1017.22
2017-05-24T03:06:40.295Z,1017.21
2017-05-24T03:07:20.838Z,1017.18
2017-05-24T03:08:01.379Z,1017.17
2017-05-24T03:08:41.893Z,1017.19
2017-05-24T03:09:22.424Z,1017.16
2017-05-24T03:10:02.949Z,1017.14
2017-05-24T03:10:43.472Z,1017.19
2017-05-24T03:11:24.011Z,1017.15
2017-05-24T03:12:04.558Z,1017.16
2017-05-24T03:12:45.095Z,1017.15
2017-05-24T03:13:25.641Z,1017.15
2017-05-24T03:14:06.150Z,1017.17
2017-05-24T03:14:46.678Z,1017.18
2017-05-24T03:15:27.210Z,1017.18
2017-05-24T03:16:07.752Z,1017.16
2017-05-24T03:16:48.307Z,1017.12
2017-05-24T03:17:28.848Z,1017.12
2017-05-24T03:18:09.391Z,1017.12
2017-05-24T03:18:49.942Z,1017.13
2017-05-24T03:19:30.454Z,1017.13
2017-05-24T03:20:10.994Z,1017.15
2017-05-24T03:20:51.534Z,1017.14
2017-05-24T03:21:32.074Z,1017.14
2017-05-24T03:22:12.603Z,1017.16
2017-05-24T03:22:53.139Z,1017.14
2017-05-24T03:23:33.678Z,1017.17
2017-05-24T03:24:14.207Z,1017.16
2017-05-24T03:24:54.746Z,1017.19
2017-05-24T03:25:35.281Z,1017.25
2017-05-24T03:26:15.820Z,1017.24
2017-05-24T03:26:56.383Z,1017.27
2017-05-24T03:27:36.934Z,1017.22
2017-05-24T03:28:17.467Z,1017.25
2017-05-24T03:28:58.056Z,1017.28
2017-05-24T03:29:38.560Z,1017.27
2017-05-24T03:30:19.080Z,1017.27
2017-05-24T03:30:59.618Z,1017.3
2017-05-24T03:31:40.115Z,1017.26
2017-05-24T03:32:20.664Z,1017.3
2017-05-24T03:33:01.164Z,1017.32
2017-05-24T03:33:41.691Z,1017.3
2017-05-24T03:34:22.202Z,1017.3
2017-05-24T03:35:02.744Z,1017.33
2017-05-24T03:35:43.272Z,1017.28
2017-05-24T03:36:23.806Z,1017.26
2017-05-24T03:37:04.348Z,1017.29
2017-05-24T03:37:45.322Z,1017.25
2017-05-24T03:38:26.113Z,1017.27
2017-05-24T03:39:06.580Z,1017.25
2017-05-24T03:39:47.094Z,1017.25
2017-05-24T03:40:27.637Z,1017.25
2017-05-24T03:41:08.161Z,1017.25
2017-05-24T03:41:48.694Z,1017.27
2017-05-24T03:42:29.236Z,1017.28
2017-05-24T03:43:09.758Z,1017.29
2017-05-24T03:43:50.278Z,1017.28
2017-05-24T03:44:30.827Z,1017.28
2017-05-24T03:45:11.356Z,1017.36
2017-05-24T03:45:51.888Z,1017.36
2017-05-24T03:46:32.430Z,1017.4
2017-05-24T03:47:12.976Z,1017.42
2017-05-24T03:47:53.522Z,1017.47
2017-05-24T03:48:34.034Z,1017.47
2017-05-24T03:49:14.557Z,1017.48
2017-05-24T03:49:55.099Z,1017.46
2017-05-24T03:50:35.637Z,1017.47
2017-05-24T03:51:16.298Z,1017.46
2017-05-24T03:51:56.841Z,1017.44
2017-05-24T03:52:37.600Z,1017.42
2017-05-24T03:53:18.141Z,1017.45
2017-05-24T03:54:16.895Z,1017.54
2017-05-24T03:54:57.495Z,1017.54
2017-05-24T03:55:37.974Z,1017.54
2017-05-24T03:56:18.505Z,1017.57
2017-05-24T03:57:00.341Z,1017.57
2017-05-24T03:57:40.840Z,1017.53
2017-05-24T03:58:26.583Z,1017.55
2017-05-24T03:59:07.109Z,1017.58
2017-05-24T03:59:47.642Z,1017.56
2017-05-24T04:00:28.160Z,1017.58
2017-05-24T04:01:08.705Z,1017.6
2017-05-24T04:01:49.339Z,1017.59
2017-05-24T04:02:29.877Z,1017.58
2017-05-24T04:03:10.412Z,1017.6
2017-05-24T04:03:50.950Z,1017.63
2017-05-24T04:04:31.485Z,1017.62
2017-05-24T04:05:12.042Z,1017.63
2017-05-24T04:05:52.575Z,1017.64
2017-05-24T04:06:33.116Z,1017.66
2017-05-24T04:07:13.662Z,1017.72
2017-05-24T04:07:54.212Z,1017.71
2017-05-24T04:08:34.753Z,1017.73
2017-05-24T04:09:15.342Z,1017.76
2017-05-24T04:09:55.890Z,1017.79
2017-05-24T04:10:36.442Z,1017.78
2017-05-24T04:11:17.004Z,1017.78
2017-05-24T04:11:57.565Z,1017.78
2017-05-24T04:12:38.083Z,1017.78
2017-05-24T04:13:18.626Z,1017.75
2017-05-24T04:13:59.172Z,1017.75
2017-05-24T04:14:39.726Z,1017.76
2017-05-24T04:15:20.241Z,1017.76
2017-05-24T04:16:00.849Z,1017.76
2017-05-24T04:16:41.390Z,1017.74
2017-05-24T04:17:21.960Z,1017.73
2017-05-24T04:18:02.481Z,1017.72
2017-05-24T04:18:43.007Z,1017.68
2017-05-24T04:19:23.542Z,1017.68
2017-05-24T04:20:04.070Z,1017.74
2017-05-24T04:20:44.616Z,1017.74
2017-05-24T04:21:25.152Z,1017.73
2017-05-24T04:22:05.690Z,1017.72
2017-05-24T04:22:46.244Z,1017.7
2017-05-24T04:23:26.801Z,1017.65
2017-05-24T04:24:07.337Z,1017.68
2017-05-24T04:24:47.867Z,1017.7
2017-05-24T04:25:28.425Z,1017.7
2017-05-24T04:26:08.959Z,1017.72
2017-05-24T04:26:49.498Z,1017.72
2017-05-24T04:27:30.031Z,1017.73
2017-05-24T04:28:10.569Z,1017.78
2017-05-24T04:28:51.092Z,1017.76
2017-05-24T04:29:31.631Z,1017.79
2017-05-24T04:30:12.180Z,1017.74
2017-05-24T04:30:52.708Z,1017.74
2017-05-24T04:31:33.234Z,1017.73
2017-05-24T04:32:13.775Z,1017.69
2017-05-24T04:32:54.319Z,1017.67
2017-05-24T04:33:34.853Z,1017.66
2017-05-24T04:34:15.389Z,1017.63
2017-05-24T04:34:55.924Z,1017.63
2017-05-24T04:35:36.463Z,1017.62
2017-05-24T04:36:16.997Z,1017.64
2017-05-24T04:36:57.535Z,1017.66
2017-05-24T04:37:38.074Z,1017.68
2017-05-24T04:38:18.603Z,1017.68
2017-05-24T04:38:59.126Z,1017.66
2017-05-24T04:39:39.636Z,1017.68
2017-05-24T04:40:20.179Z,1017.64
2017-05-24T04:41:00.718Z,1017.68
2017-05-24T04:41:41.241Z,1017.67
2017-05-24T04:42:21.777Z,1017.66
2017-05-24T04:43:02.319Z,1017.69
2017-05-24T04:43:42.836Z,1017.71
2017-05-24T04:44:23.380Z,1017.69
2017-05-24T04:45:03.903Z,1017.72
2017-05-24T04:45:44.445Z,1017.73
2017-05-24T04:46:24.987Z,1017.72
2017-05-24T04:47:05.620Z,1017.74
2017-05-24T04:47:46.156Z,1017.7
2017-05-24T04:48:26.688Z,1017.7
2017-05-24T04:49:07.224Z,1017.69
2017-05-24T04:49:47.757Z,1017.68
2017-05-24T04:50:28.274Z,1017.69
2017-05-24T04:51:08.802Z,1017.7
2017-05-24T04:51:49.349Z,1017.69
2017-05-24T04:52:29.864Z,1017.75
2017-05-24T04:53:10.391Z,1017.71
2017-05-24T04:53:50.937Z,1017.71
2017-05-24T04:54:31.484Z,1017.71
2017-05-24T04:55:12.028Z,1017.69
2017-05-24T04:55:52.576Z,1017.69
2017-05-24T04:56:33.096Z,1017.7
2017-05-24T04:57:13.624Z,1017.68
2017-05-24T04:57:54.163Z,1017.65
2017-05-24T04:58:34.715Z,1017.66
2017-05-24T04:59:15.251Z,1017.65
2017-05-24T04:59:55.781Z,1017.65
2017-05-24T05:00:36.304Z,1017.64
2017-05-24T05:01:16.827Z,1017.65
2017-05-24T05:01:57.369Z,1017.63
2017-05-24T05:02:37.899Z,1017.65
2017-05-24T05:03:18.421Z,1017.62
2017-05-24T05:03:58.945Z,1017.64
2017-05-24T05:04:39.474Z,1017.68
2017-05-24T05:05:20.777Z,1017.68
2017-05-24T05:06:01.337Z,1017.65
2017-05-24T05:06:41.838Z,1017.67
2017-05-24T05:07:22.379Z,1017.63
2017-05-24T05:08:02.916Z,1017.66
2017-05-24T05:08:43.430Z,1017.68
2017-05-24T05:09:23.958Z,1017.69
2017-05-24T05:10:04.491Z,1017.72
2017-05-24T05:10:45.046Z,1017.74
2017-05-24T05:11:25.590Z,1017.74
2017-05-24T05:12:06.109Z,1017.7
2017-05-24T05:12:46.626Z,1017.71
2017-05-24T05:13:27.161Z,1017.71
2017-05-24T05:14:07.711Z,1017.69
2017-05-24T05:14:48.251Z,1017.68
2017-05-24T05:15:28.794Z,1017.73
2017-05-24T05:16:09.386Z,1017.69
2017-05-24T05:16:49.864Z,1017.72
2017-05-24T05:17:30.416Z,1017.71
2017-05-24T05:18:10.948Z,1017.7
2017-05-24T05:18:51.477Z,1017.7
2017-05-24T05:19:32.045Z,1017.69
2017-05-24T05:20:12.582Z,1017.69
2017-05-24T05:20:53.123Z,1017.71
2017-05-24T05:21:33.669Z,1017.72
2017-05-24T05:22:14.223Z,1017.73
2017-05-24T05:22:54.796Z,1017.74
2017-05-24T05:23:35.338Z,1017.72
2017-05-24T05:24:15.881Z,1017.75
2017-05-24T05:24:56.427Z,1017.72
2017-05-24T05:25:36.993Z,1017.72
2017-05-24T05:26:17.509Z,1017.73
2017-05-24T05:26:58.051Z,1017.72
2017-05-24T05:27:38.574Z,1017.71
2017-05-24T05:28:19.118Z,1017.72
2017-05-24T05:28:59.651Z,1017.72
2017-05-24T05:29:40.181Z,1017.78
2017-05-24T05:30:20.721Z,1017.78
2017-05-24T05:31:01.259Z,1017.78
2017-05-24T05:31:41.796Z,1017.81
2017-05-24T05:32:22.324Z,1017.81
2017-05-24T05:33:02.862Z,1017.8
2017-05-24T05:33:43.402Z,1017.79
2017-05-24T05:34:23.945Z,1017.81
2017-05-24T05:35:04.482Z,1017.84
2017-05-24T05:35:45.021Z,1017.83
2017-05-24T05:36:25.563Z,1017.86
2017-05-24T05:37:06.102Z,1017.86
2017-05-24T05:37:46.645Z,1017.83
2017-05-24T05:38:27.191Z,1017.9
2017-05-24T05:39:07.735Z,1017.92
2017-05-24T05:39:48.260Z,1017.9
2017-05-24T05:40:28.796Z,1017.86
2017-05-24T05:41:09.327Z,1017.86
2017-05-24T05:41:49.870Z,1017.86
2017-05-24T05:42:30.402Z,1017.88
2017-05-24T05:43:10.968Z,1017.9
2017-05-24T05:43:51.461Z,1017.86
2017-05-24T05:44:31.996Z,1017.89
2017-05-24T05:45:12.566Z,1017.92
2017-05-24T05:45:53.095Z,1017.92
2017-05-24T05:46:33.632Z,1017.96
2017-05-24T05:47:14.175Z,1017.97
2017-05-24T05:47:54.714Z,1017.98
2017-05-24T05:48:35.253Z,1017.98
2017-05-24T05:49:15.792Z,1017.99
2017-05-24T05:49:56.311Z,1018.01
2017-05-24T05:50:36.853Z,1018.01
2017-05-24T05:51:17.385Z,1018
2017-05-24T05:51:57.940Z,1018.07
2017-05-24T05:52:38.463Z,1018.05
2017-05-24T05:53:18.989Z,1018.05
2017-05-24T05:53:59.521Z,1018.06
2017-05-24T05:54:40.155Z,1018.07
2017-05-24T05:55:20.951Z,1018.03
2017-05-24T05:56:01.550Z,1018
2017-05-24T05:56:42.094Z,1018.02
2017-05-24T05:57:22.633Z,1018.04
2017-05-24T05:58:03.179Z,1018.03
2017-05-24T05:58:43.719Z,1018.01
2017-05-24T05:59:24.253Z,1018
2017-05-24T06:00:04.784Z,1017.99
2017-05-24T06:00:45.322Z,1017.96
2017-05-24T06:01:27.797Z,1017.96
2017-05-24T06:02:08.346Z,1017.98
2017-05-24T06:02:48.872Z,1017.94
2017-05-24T06:03:29.415Z,1017.92
2017-05-24T06:04:09.956Z,1017.93
2017-05-24T06:04:50.546Z,1017.92
2017-05-24T06:05:31.076Z,1017.93
2017-05-24T06:06:11.614Z,1017.94
2017-05-24T06:06:52.159Z,1017.95
2017-05-24T06:07:32.751Z,1017.99
2017-05-24T06:08:13.281Z,1017.98
2017-05-24T06:08:53.816Z,1017.99
2017-05-24T06:09:34.375Z,1017.96
2017-05-24T06:10:14.916Z,1017.96
2017-05-24T06:10:55.478Z,1017.94
2017-05-24T06:11:36.028Z,1017.93
2017-05-24T06:12:16.571Z,1017.94
2017-05-24T06:12:57.098Z,1017.97
2017-05-24T06:13:37.642Z,1017.99
2017-05-24T06:14:18.189Z,1018.01
2017-05-24T06:14:58.727Z,1018.06
2017-05-24T06:15:39.278Z,1018.03
2017-05-24T06:16:19.834Z,1018.06
2017-05-24T06:17:00.382Z,1018.07
2017-05-24T06:17:40.941Z,1018.08
2017-05-24T06:18:21.469Z,1018.11
2017-05-24T06:19:01.997Z,1018.09
2017-05-24T06:19:42.543Z,1018.08
2017-05-24T06:20:23.088Z,1018.06
2017-05-24T06:21:03.620Z,1018.09
2017-05-24T06:21:44.152Z,1018.04
2017-05-24T06:22:24.682Z,1018.09
2017-05-24T06:23:05.214Z,1018.07
2017-05-24T06:23:45.747Z,1018.06
2017-05-24T06:24:26.259Z,1018.05
2017-05-24T06:25:06.789Z,1018.05
2017-05-24T06:25:47.336Z,1018.04
2017-05-24T06:26:27.876Z,1018.06
2017-05-24T06:27:08.420Z,1018.01
2017-05-24T06:27:48.966Z,1018.02
2017-05-24T06:28:29.493Z,1018.02
2017-05-24T06:29:10.034Z,1018.01
2017-05-24T06:29:50.614Z,1017.99
2017-05-24T06:30:31.126Z,1018.02
2017-05-24T06:31:11.639Z,1018.02
2017-05-24T06:31:52.179Z,1018.02
2017-05-24T06:32:32.741Z,1018.02
2017-05-24T06:33:13.278Z,1018.02
2017-05-24T06:33:53.829Z,1017.98
2017-05-24T06:34:34.367Z,1018.01
2017-05-24T06:35:14.903Z,1018.01
2017-05-24T06:35:55.453Z,1017.98
2017-05-24T06:36:35.974Z,1018
2017-05-24T06:37:16.516Z,1017.98
2017-05-24T06:37:57.052Z,1018.02
2017-05-24T06:38:37.587Z,1018.01
2017-05-24T06:39:18.223Z,1018.02
2017-05-24T06:39:58.711Z,1018.05
2017-05-24T06:40:39.271Z,1018.02
2017-05-24T06:41:19.809Z,1018.05
2017-05-24T06:42:00.341Z,1018.05
2017-05-24T06:42:40.886Z,1018.08
2017-05-24T06:43:21.422Z,1018.08
2017-05-24T06:44:01.962Z,1018.11
2017-05-24T06:44:42.509Z,1018.12
2017-05-24T06:45:23.043Z,1018.13
2017-05-24T06:46:03.594Z,1018.13
2017-05-24T06:46:44.128Z,1018.12
2017-05-24T06:47:24.679Z,1018.14
2017-05-24T06:48:05.193Z,1018.17
2017-05-24T06:48:45.735Z,1018.16
2017-05-24T06:49:26.276Z,1018.12
2017-05-24T06:50:06.814Z,1018.15
2017-05-24T06:50:47.356Z,1018.14
2017-05-24T06:51:27.886Z,1018.11
2017-05-24T06:52:08.424Z,1018.17
2017-05-24T06:52:48.947Z,1018.16
2017-05-24T06:53:29.482Z,1018.15
2017-05-24T06:54:10.017Z,1018.16
2017-05-24T06:54:50.562Z,1018.14
2017-05-24T06:55:31.113Z,1018.14
2017-05-24T06:56:11.659Z,1018.19
2017-05-24T06:56:52.200Z,1018.15
2017-05-24T06:57:32.739Z,1018.2
2017-05-24T06:58:13.287Z,1018.2
2017-05-24T06:58:53.872Z,1018.16
2017-05-24T06:59:34.418Z,1018.21
2017-05-24T07:00:14.968Z,1018.22
2017-05-24T07:00:55.518Z,1018.18
2017-05-24T07:01:36.067Z,1018.22
2017-05-24T07:02:16.620Z,1018.22
2017-05-24T07:02:57.168Z,1018.25
2017-05-24T07:03:37.722Z,1018.21
2017-05-24T07:04:18.248Z,1018.21
2017-05-24T07:04:58.795Z,1018.22
2017-05-24T07:05:39.337Z,1018.24
2017-05-24T07:06:19.878Z,1018.22
2017-05-24T07:07:00.419Z,1018.26
2017-05-24T07:07:40.963Z,1018.24
2017-05-24T07:08:21.511Z,1018.27
2017-05-24T07:09:02.059Z,1018.24
2017-05-24T07:09:42.608Z,1018.2
2017-05-24T07:10:23.159Z,1018.23
2017-05-24T07:11:03.700Z,1018.21
2017-05-24T07:11:44.228Z,1018.19
2017-05-24T07:12:24.784Z,1018.22
2017-05-24T07:13:05.328Z,1018.24
2017-05-24T07:13:45.863Z,1018.21
2017-05-24T07:14:26.406Z,1018.2
2017-05-24T07:15:06.948Z,1018.21
2017-05-24T07:15:47.488Z,1018.17
2017-05-24T07:16:28.029Z,1018.2
2017-05-24T07:17:08.559Z,1018.22
2017-05-24T07:17:49.090Z,1018.23
2017-05-24T07:18:29.627Z,1018.21
2017-05-24T07:19:10.162Z,1018.21
2017-05-24T07:19:50.715Z,1018.19
2017-05-24T07:20:31.256Z,1018.21
2017-05-24T07:21:11.791Z,1018.2
2017-05-24T07:21:52.341Z,1018.18
2017-05-24T07:22:32.891Z,1018.19
2017-05-24T07:23:13.445Z,1018.19
2017-05-24T07:23:53.984Z,1018.21
2017-05-24T07:24:34.534Z,1018.21
2017-05-24T07:25:15.080Z,1018.22
2017-05-24T07:25:55.631Z,1018.24
2017-05-24T07:26:36.247Z,1018.29
2017-05-24T07:27:16.788Z,1018.31
2017-05-24T07:27:57.340Z,1018.31
2017-05-24T07:28:37.876Z,1018.32
2017-05-24T07:29:18.414Z,1018.3
2017-05-24T07:29:58.954Z,1018.36
2017-05-24T07:30:39.506Z,1018.33
2017-05-24T07:31:20.054Z,1018.33
2017-05-24T07:32:00.603Z,1018.29
2017-05-24T07:32:41.144Z,1018.25
2017-05-24T07:33:21.690Z,1018.28
2017-05-24T07:34:02.234Z,1018.3
2017-05-24T07:34:42.787Z,1018.34
2017-05-24T07:35:23.330Z,1018.37
2017-05-24T07:36:03.920Z,1018.33
2017-05-24T07:36:44.407Z,1018.32
2017-05-24T07:37:24.929Z,1018.33
2017-05-24T07:38:05.469Z,1018.35
2017-05-24T07:38:46.015Z,1018.36
2017-05-24T07:39:26.549Z,1018.32
2017-05-24T07:40:07.100Z,1018.31
2017-05-24T07:40:47.622Z,1018.36
2017-05-24T07:41:28.172Z,1018.35
2017-05-24T07:42:08.707Z,1018.37
2017-05-24T07:42:49.247Z,1018.39
2017-05-24T07:43:29.786Z,1018.4
2017-05-24T07:44:10.318Z,1018.4
2017-05-24T07:44:50.857Z,1018.44
2017-05-24T07:45:31.400Z,1018.46
2017-05-24T07:46:11.942Z,1018.48
2017-05-24T07:46:52.477Z,1018.47
2017-05-24T07:47:33.017Z,1018.49
2017-05-24T07:48:13.539Z,1018.48
2017-05-24T07:48:54.061Z,1018.43
2017-05-24T07:49:34.594Z,1018.46
2017-05-24T07:50:15.129Z,1018.48
2017-05-24T07:50:55.677Z,1018.5
2017-05-24T07:51:36.212Z,1018.47
2017-05-24T07:52:16.748Z,1018.46
2017-05-24T07:52:57.266Z,1018.47
2017-05-24T07:53:37.802Z,1018.44
2017-05-24T07:54:18.341Z,1018.44
2017-05-24T07:54:58.885Z,1018.46
2017-05-24T07:55:39.430Z,1018.47
2017-05-24T07:56:19.977Z,1018.42
2017-05-24T07:57:00.516Z,1018.39
2017-05-24T07:57:41.043Z,1018.39
2017-05-24T07:58:21.584Z,1018.36
2017-05-24T07:59:02.131Z,1018.34
2017-05-24T07:59:42.684Z,1018.4
2017-05-24T08:00:23.219Z,1018.36
2017-05-24T08:01:03.761Z,1018.38
2017-05-24T08:01:44.310Z,1018.39
2017-05-24T08:02:24.932Z,1018.39
2017-05-24T08:03:05.467Z,1018.41
2017-05-24T08:03:45.994Z,1018.4
2017-05-24T08:04:26.525Z,1018.37
2017-05-24T08:05:07.069Z,1018.4
2017-05-24T08:05:47.607Z,1018.41
2017-05-24T08:06:28.158Z,1018.45
2017-05-24T08:07:08.694Z,1018.43
2017-05-24T08:07:49.240Z,1018.39
2017-05-24T08:08:29.766Z,1018.38
2017-05-24T08:09:10.304Z,1018.39
2017-05-24T08:09:50.847Z,1018.37
2017-05-24T08:10:31.393Z,1018.35
2017-05-24T08:11:11.927Z,1018.4
2017-05-24T08:11:52.475Z,1018.39
2017-05-24T08:12:33.024Z,1018.36